createdAt,value
2022-09-07T00:00:10.337Z,16.30
2022-09-07T00:02:37.306Z,16.30
2022-09-07T00:05:04.561Z,16.20
2022-09-07T00:07:31.553Z,16.20
2022-09-07T00:09:58.611Z,16.20
2022-09-07T00:12:25.571Z,16.10
2022-09-07T00:14:52.602Z,16.10
2022-09-07T00:17:19.541Z,16.00
2022-09-07T00:19:46.482Z,16.00
2022-09-07T00:22:13.373Z,15.90
2022-09-07T00:24:40.355Z,15.80
2022-09-07T00:27:07.270Z,15.80
2022-09-07T00:29:34.162Z,15.80
2022-09-07T00:32:01.072Z,15.70
2022-09-07T00:34:27.956Z,15.70
2022-09-07T00:36:55.131Z,15.70
2022-09-07T00:39:22.055Z,15.60
2022-09-07T00:41:48.964Z,15.60
2022-09-07T00:44:43.928Z,15.60
2022-09-07T00:47:15.851Z,15.60
2022-09-07T00:49:45.757Z,15.60
2022-09-07T00:52:14.090Z,15.60
2022-09-07T00:54:46.634Z,15.60
2022-09-07T00:57:14.398Z,15.50
2022-09-07T00:59:48.288Z,15.50
2022-09-07T01:02:17.313Z,15.50
2022-09-07T01:04:49.946Z,15.40
2022-09-07T01:07:16.922Z,15.40
2022-09-07T01:09:47.350Z,15.30
2022-09-07T01:12:14.743Z,15.30
2022-09-07T01:14:45.344Z,15.40
2022-09-07T01:17:49.430Z,15.30
2022-09-07T01:20:36.266Z,15.30
2022-09-07T01:23:21.988Z,15.30
2022-09-07T01:25:57.747Z,15.30
2022-09-07T01:28:33.702Z,15.30
2022-09-07T01:31:09.555Z,15.30
2022-09-07T01:33:56.009Z,15.30
2022-09-07T01:36:49.975Z,15.30
2022-09-07T01:39:21.991Z,15.20
2022-09-07T01:42:14.275Z,15.20
2022-09-07T01:44:49.775Z,15.20
2022-09-07T01:47:31.422Z,15.10
2022-09-07T01:50:17.003Z,15.10
2022-09-07T01:52:47.016Z,15.00
2022-09-07T01:55:27.357Z,14.90
2022-09-07T01:58:12.349Z,14.90
2022-09-07T02:00:43.710Z,14.90
2022-09-07T02:03:16.380Z,14.80
2022-09-07T02:06:00.474Z,14.70
2022-09-07T02:08:29.443Z,14.80
2022-09-07T02:11:02.519Z,14.80
2022-09-07T02:13:42.603Z,14.80
2022-09-07T02:16:11.819Z,14.80
2022-09-07T02:18:51.406Z,14.80
2022-09-07T02:21:24.645Z,14.80
2022-09-07T02:23:57.016Z,14.80
2022-09-07T02:26:26.477Z,14.80
2022-09-07T02:28:53.681Z,14.80
2022-09-07T02:31:20.919Z,14.80
2022-09-07T02:33:47.917Z,14.80
2022-09-07T02:36:17.598Z,14.70
2022-09-07T02:38:44.568Z,14.70
2022-09-07T02:41:46.901Z,14.70
2022-09-07T02:44:18.662Z,14.70
2022-09-07T02:47:12.438Z,14.70
2022-09-07T02:49:42.058Z,14.70
2022-09-07T02:52:15.079Z,14.60
2022-09-07T02:55:05.528Z,14.60
2022-09-07T02:57:38.814Z,14.60
2022-09-07T03:00:11.287Z,14.50
2022-09-07T03:02:42.407Z,14.40
2022-09-07T03:05:47.135Z,14.40
2022-09-07T03:08:19.534Z,14.40
2022-09-07T03:10:47.643Z,14.30
2022-09-07T03:13:26.915Z,14.30
2022-09-07T03:15:56.196Z,14.30
2022-09-07T03:18:25.089Z,14.30
2022-09-07T03:20:52.739Z,14.30
2022-09-07T03:23:19.818Z,14.20
2022-09-07T03:25:49.200Z,14.20
2022-09-07T03:28:16.376Z,14.10
2022-09-07T03:30:44.516Z,14.20
2022-09-07T03:33:11.786Z,14.10
2022-09-07T03:35:38.703Z,14.20
2022-09-07T03:38:05.656Z,14.20
2022-09-07T03:40:33.177Z,14.20
2022-09-07T03:43:00.115Z,14.20
2022-09-07T03:45:27.099Z,14.30
2022-09-07T03:47:53.994Z,14.20
2022-09-07T03:50:20.888Z,14.20
2022-09-07T03:52:47.790Z,14.20
2022-09-07T03:55:14.751Z,14.20
2022-09-07T03:57:42.876Z,14.20
2022-09-07T04:00:10.466Z,14.30
2022-09-07T04:02:37.475Z,14.30
2022-09-07T04:05:04.758Z,14.40
2022-09-07T04:07:31.638Z,14.40
2022-09-07T04:09:58.718Z,14.50
2022-09-07T04:12:26.171Z,14.50
2022-09-07T04:14:53.115Z,14.60
2022-09-07T04:17:20.016Z,14.70
2022-09-07T04:19:46.890Z,14.70
2022-09-07T04:22:13.787Z,14.70
2022-09-07T04:24:40.692Z,14.70
2022-09-07T04:27:07.589Z,14.80
2022-09-07T04:29:34.623Z,14.80
2022-09-07T04:32:01.761Z,14.80
2022-09-07T04:34:28.735Z,14.80
2022-09-07T04:36:55.639Z,14.80
2022-09-07T04:39:22.986Z,14.80
2022-09-07T04:41:49.891Z,14.70
2022-09-07T04:44:17.234Z,14.80
2022-09-07T04:46:44.595Z,14.80
2022-09-07T04:49:12.361Z,14.80
2022-09-07T04:51:42.554Z,14.80
2022-09-07T04:54:10.496Z,14.80
2022-09-07T04:56:37.541Z,14.80
2022-09-07T04:59:04.898Z,14.80
2022-09-07T05:01:31.909Z,14.90
2022-09-07T05:04:03.395Z,15.00
2022-09-07T05:06:30.444Z,15.00
2022-09-07T05:08:59.071Z,15.10
2022-09-07T05:11:29.471Z,15.30
2022-09-07T05:14:00.869Z,15.40
2022-09-07T05:16:28.724Z,15.50
2022-09-07T05:18:57.835Z,15.50
2022-09-07T05:21:27.976Z,15.70
2022-09-07T05:23:57.027Z,15.80
2022-09-07T05:26:27.258Z,16.00
2022-09-07T05:31:41.867Z,16.30
2022-09-07T05:36:56.522Z,16.70
2022-09-07T05:39:23.816Z,17.00
2022-09-07T05:41:50.877Z,17.20
2022-09-07T05:47:04.930Z,17.40
2022-09-07T05:49:32.486Z,17.60
2022-09-07T05:51:59.381Z,17.80
2022-09-07T05:54:26.322Z,18.10
2022-09-07T05:56:53.213Z,18.20
2022-09-07T05:59:20.169Z,18.40
2022-09-07T06:01:47.229Z,18.50
2022-09-07T06:04:14.180Z,18.60
2022-09-07T06:06:41.130Z,18.70
2022-09-07T06:09:11.368Z,18.80
2022-09-07T06:11:38.605Z,18.90
2022-09-07T06:14:05.514Z,18.70
2022-09-07T06:16:35.032Z,18.60
2022-09-07T06:19:06.423Z,18.70
2022-09-07T06:21:36.842Z,18.80
2022-09-07T06:24:05.472Z,18.90
2022-09-07T06:26:32.874Z,19.00
2022-09-07T06:28:59.825Z,19.00
2022-09-07T06:31:28.835Z,19.10
2022-09-07T06:33:56.339Z,19.20
2022-09-07T06:36:27.973Z,19.30
2022-09-07T06:38:56.392Z,19.50
2022-09-07T06:44:12.898Z,19.70
2022-09-07T06:49:26.869Z,19.90
2022-09-07T06:51:53.778Z,19.90
2022-09-07T06:57:09.448Z,20.10
2022-09-07T06:59:37.770Z,20.10
2022-09-07T07:02:06.535Z,20.10
2022-09-07T07:04:39.620Z,19.90
2022-09-07T07:07:11.887Z,19.80
2022-09-07T07:09:39.090Z,19.90
2022-09-07T07:12:06.296Z,19.90
2022-09-07T07:14:35.533Z,20.00
2022-09-07T07:17:03.549Z,20.00
2022-09-07T07:19:30.516Z,20.10
2022-09-07T07:24:44.423Z,20.30
2022-09-07T07:27:11.527Z,20.30
2022-09-07T07:29:38.414Z,20.50
2022-09-07T07:32:05.730Z,20.60
2022-09-07T07:34:33.163Z,20.80
2022-09-07T07:37:00.095Z,20.80
2022-09-07T07:42:13.799Z,21.10
2022-09-07T07:44:40.651Z,21.30
2022-09-07T07:47:07.545Z,21.40
2022-09-07T07:49:34.413Z,21.60
2022-09-07T07:54:48.953Z,21.90
2022-09-07T07:57:18.935Z,22.00
2022-09-07T07:59:45.967Z,22.10
2022-09-07T08:02:17.475Z,22.20
2022-09-07T08:04:44.799Z,22.20
2022-09-07T08:07:12.212Z,22.20
2022-09-07T08:09:44.755Z,22.40
2022-09-07T08:12:16.782Z,22.40
2022-09-07T08:14:44.551Z,22.60
2022-09-07T08:17:13.575Z,22.70
2022-09-07T08:19:41.028Z,22.70
2022-09-07T08:22:09.555Z,22.90
2022-09-07T08:24:36.479Z,23.00
2022-09-07T08:27:04.115Z,23.20
2022-09-07T08:29:34.468Z,23.30
2022-09-07T08:32:03.642Z,23.30
2022-09-07T08:34:30.534Z,23.30
2022-09-07T08:36:57.330Z,23.20
2022-09-07T08:39:24.183Z,23.30
2022-09-07T08:42:03.388Z,23.30
2022-09-07T08:44:35.042Z,23.40
2022-09-07T08:47:15.053Z,23.50
2022-09-07T08:49:50.783Z,23.60
2022-09-07T08:52:27.280Z,23.60
2022-09-07T08:55:34.829Z,23.60
2022-09-07T08:58:45.286Z,23.80
2022-09-07T09:04:17.818Z,24.00
2022-09-07T09:06:53.861Z,24.10
2022-09-07T09:09:32.779Z,24.20
2022-09-07T09:12:11.060Z,24.30
2022-09-07T09:14:59.551Z,24.30
2022-09-07T09:17:39.511Z,24.40
2022-09-07T09:20:06.526Z,24.50
2022-09-07T09:22:34.324Z,24.60
2022-09-07T09:25:07.301Z,24.70
2022-09-07T09:27:34.177Z,24.70
2022-09-07T09:30:01.039Z,24.80
2022-09-07T09:32:41.401Z,24.90
2022-09-07T09:35:32.642Z,25.00
2022-09-07T09:37:59.460Z,25.00
2022-09-07T09:40:37.201Z,25.30
2022-09-07T09:43:20.567Z,25.40
2022-09-07T09:48:40.704Z,25.60
2022-09-07T09:53:57.597Z,25.70
2022-09-07T09:56:37.592Z,25.60
2022-09-07T10:05:32.543Z,25.90
2022-09-07T10:07:59.598Z,25.90
2022-09-07T10:10:28.359Z,25.80
2022-09-07T10:12:55.950Z,25.80
2022-09-07T10:15:41.806Z,25.80
2022-09-07T10:18:21.360Z,25.90
2022-09-07T10:20:48.928Z,25.90
2022-09-07T10:23:22.671Z,25.90
2022-09-07T10:25:49.635Z,25.80
2022-09-07T10:28:22.069Z,25.80
2022-09-07T10:30:58.990Z,25.90
2022-09-07T10:36:35.831Z,26.10
2022-09-07T10:39:12.274Z,26.00
2022-09-07T10:42:13.999Z,26.10
2022-09-07T10:45:02.471Z,26.30
2022-09-07T10:48:00.269Z,26.40
2022-09-07T10:50:38.153Z,26.40
2022-09-07T10:53:41.730Z,26.40
2022-09-07T10:56:18.293Z,26.50
2022-09-07T10:59:02.867Z,26.50
2022-09-07T11:01:59.527Z,26.60
2022-09-07T11:05:04.183Z,26.80
2022-09-07T11:07:33.693Z,26.80
2022-09-07T11:10:03.779Z,26.90
2022-09-07T11:12:39.580Z,26.70
2022-09-07T11:15:24.519Z,26.40
2022-09-07T11:17:54.362Z,26.10
2022-09-07T11:20:27.808Z,25.80
2022-09-07T11:23:23.041Z,25.60
2022-09-07T11:26:28.215Z,25.50
2022-09-07T11:29:33.654Z,25.30
2022-09-07T11:32:07.312Z,25.20
2022-09-07T11:34:52.143Z,25.00
2022-09-07T11:37:31.211Z,24.90
2022-09-07T11:40:24.214Z,24.90
2022-09-07T11:43:17.755Z,24.90
2022-09-07T11:45:49.720Z,24.90
2022-09-07T11:48:31.402Z,24.90
2022-09-07T11:51:21.695Z,25.00
2022-09-07T11:54:00.938Z,25.30
2022-09-07T11:56:36.954Z,25.70
2022-09-07T11:59:25.194Z,25.70
2022-09-07T12:01:54.759Z,25.80
2022-09-07T12:04:29.421Z,25.90
2022-09-07T12:07:11.119Z,25.80
2022-09-07T12:09:53.575Z,25.90
2022-09-07T12:12:38.802Z,26.00
2022-09-07T12:15:27.011Z,25.90
2022-09-07T12:17:56.576Z,26.10
2022-09-07T12:20:39.328Z,26.20
2022-09-07T12:23:31.625Z,26.20
2022-09-07T12:26:37.537Z,26.10
2022-09-07T12:29:17.621Z,25.90
2022-09-07T12:31:58.735Z,25.80
2022-09-07T12:34:32.849Z,25.70
2022-09-07T12:37:22.730Z,25.70
2022-09-07T12:39:50.273Z,25.70
2022-09-07T12:42:36.744Z,25.60
2022-09-07T12:45:39.184Z,25.70
2022-09-07T12:48:14.866Z,25.70
2022-09-07T12:50:56.683Z,25.70
2022-09-07T12:53:59.790Z,25.70
2022-09-07T12:57:29.158Z,25.60
2022-09-07T12:59:40.643Z,25.60
2022-09-07T13:02:10.477Z,25.40
2022-09-07T13:05:06.824Z,25.30
2022-09-07T13:07:39.318Z,25.10
2022-09-07T13:10:33.454Z,24.90
2022-09-07T13:13:06.911Z,24.70
2022-09-07T13:16:11.582Z,24.70
2022-09-07T13:18:41.180Z,24.70
2022-09-07T13:21:08.093Z,24.70
2022-09-07T13:23:35.009Z,24.70
2022-09-07T13:26:04.755Z,24.70
2022-09-07T13:28:56.154Z,24.80
2022-09-07T13:31:47.733Z,24.90
2022-09-07T13:34:34.755Z,24.90
2022-09-07T13:37:05.308Z,25.00
2022-09-07T13:39:53.501Z,25.20
2022-09-07T13:42:28.370Z,25.30
2022-09-07T13:44:57.732Z,25.40
2022-09-07T13:47:53.611Z,25.40
2022-09-07T13:50:39.415Z,25.40
2022-09-07T13:53:23.355Z,25.40
2022-09-07T13:56:10.501Z,25.50
2022-09-07T13:58:42.772Z,25.60
2022-09-07T14:01:12.727Z,25.80
2022-09-07T14:03:47.893Z,26.10
2022-09-07T14:06:20.776Z,26.30
2022-09-07T14:08:49.891Z,26.40
2022-09-07T14:11:50.786Z,26.50
2022-09-07T14:14:20.255Z,26.90
2022-09-07T14:17:10.925Z,27.30
2022-09-07T14:19:41.014Z,27.60
2022-09-07T14:22:07.795Z,27.90
2022-09-07T14:24:50.087Z,28.00
2022-09-07T14:27:24.107Z,27.80
2022-09-07T14:29:51.769Z,27.90
2022-09-07T14:32:23.259Z,28.00
2022-09-07T14:34:50.791Z,28.20
2022-09-07T14:37:19.343Z,28.30
2022-09-07T14:39:49.304Z,28.20
2022-09-07T14:42:23.106Z,28.00
2022-09-07T14:44:50.475Z,27.90
2022-09-07T14:47:33.987Z,27.50
2022-09-07T14:50:06.903Z,27.20
2022-09-07T14:52:42.355Z,26.80
2022-09-07T14:55:31.020Z,26.40
2022-09-07T14:58:15.980Z,25.90
2022-09-07T15:01:37.327Z,25.30
2022-09-07T15:03:51.010Z,25.00
2022-09-07T15:07:02.146Z,24.70
2022-09-07T15:09:30.824Z,24.40
2022-09-07T15:12:09.571Z,24.00
2022-09-07T15:14:36.388Z,23.90
2022-09-07T15:19:50.478Z,23.50
2022-09-07T15:22:18.849Z,23.30
2022-09-07T15:24:49.686Z,23.10
2022-09-07T15:27:21.711Z,22.80
2022-09-07T15:29:48.523Z,22.60
2022-09-07T15:32:18.017Z,22.50
2022-09-07T15:34:45.239Z,22.40
2022-09-07T15:39:59.449Z,22.10
2022-09-07T15:45:13.616Z,21.90
2022-09-07T15:47:43.961Z,21.70
2022-09-07T15:50:14.804Z,21.70
2022-09-07T15:52:41.642Z,21.60
2022-09-07T15:55:09.297Z,21.50
2022-09-07T15:58:02.157Z,21.30
2022-09-07T16:00:23.148Z,21.10
2022-09-07T16:03:07.276Z,21.00
2022-09-07T16:05:35.259Z,20.80
2022-09-07T16:10:54.114Z,20.20
2022-09-07T16:13:24.134Z,20.20
2022-09-07T16:15:51.333Z,20.10
2022-09-07T16:18:18.595Z,20.00
2022-09-07T16:20:46.175Z,20.10
2022-09-07T16:23:15.870Z,20.00
2022-09-07T16:25:58.814Z,20.10
2022-09-07T16:28:26.611Z,20.00
2022-09-07T16:30:53.829Z,20.10
2022-09-07T16:33:21.033Z,20.10
2022-09-07T16:35:59.580Z,20.10
2022-09-07T16:41:20.027Z,20.00
2022-09-07T16:43:47.387Z,20.00
2022-09-07T16:46:19.448Z,19.90
2022-09-07T16:48:46.378Z,19.80
2022-09-07T16:51:16.408Z,19.70
2022-09-07T16:53:43.518Z,19.50
2022-09-07T16:56:13.099Z,19.40
2022-09-07T16:58:42.569Z,19.40
2022-09-07T17:01:12.085Z,19.40
2022-09-07T17:03:39.667Z,19.30
2022-09-07T17:06:08.478Z,19.30
2022-09-07T17:08:36.902Z,19.30
2022-09-07T17:11:06.497Z,19.20
2022-09-07T17:13:34.972Z,19.20
2022-09-07T17:16:07.833Z,19.10
2022-09-07T17:21:22.722Z,18.90
2022-09-07T17:23:54.834Z,18.70
2022-09-07T17:26:26.052Z,18.60
2022-09-07T17:28:55.498Z,18.50
2022-09-07T17:34:13.399Z,18.30
2022-09-07T17:36:40.419Z,18.20
2022-09-07T17:39:22.729Z,18.00
2022-09-07T17:41:52.607Z,18.00
2022-09-07T17:44:20.439Z,18.00
2022-09-07T17:46:47.355Z,17.90
2022-09-07T17:49:16.493Z,17.80
2022-09-07T17:51:44.660Z,17.70
2022-09-07T17:54:14.796Z,17.70
2022-09-07T17:56:42.553Z,17.50
2022-09-07T18:01:57.832Z,17.40
2022-09-07T18:04:24.835Z,17.30
2022-09-07T18:06:53.249Z,17.30
2022-09-07T18:09:20.176Z,17.20
2022-09-07T18:11:48.952Z,17.20
2022-09-07T18:14:16.809Z,17.10
2022-09-07T18:16:45.724Z,17.10
2022-09-07T18:19:13.306Z,17.00
2022-09-07T18:21:42.235Z,17.00
2022-09-07T18:24:18.509Z,16.90
2022-09-07T18:26:50.900Z,16.80
2022-09-07T18:29:33.837Z,16.80
2022-09-07T18:32:05.721Z,16.70
2022-09-07T18:34:35.630Z,16.70
2022-09-07T18:37:02.548Z,16.60
2022-09-07T18:39:29.999Z,16.60
2022-09-07T18:41:57.175Z,16.60
2022-09-07T18:47:21.707Z,16.50
2022-09-07T18:49:51.227Z,16.50
2022-09-07T18:55:07.643Z,16.40
2022-09-07T18:57:36.164Z,16.30
2022-09-07T19:00:05.665Z,16.30
2022-09-07T19:02:33.550Z,16.30
2022-09-07T19:07:47.462Z,16.30
2022-09-07T19:10:16.762Z,16.20
2022-09-07T19:12:45.818Z,16.20
2022-09-07T19:15:13.536Z,16.10
2022-09-07T19:17:40.731Z,16.00
2022-09-07T19:20:08.060Z,15.90
2022-09-07T19:22:34.905Z,15.90
2022-09-07T19:25:04.121Z,15.90
2022-09-07T19:27:33.069Z,15.90
2022-09-07T19:30:00.154Z,15.90
2022-09-07T19:32:27.268Z,15.90
2022-09-07T19:34:55.540Z,15.90
2022-09-07T19:37:25.850Z,16.00
2022-09-07T19:39:56.273Z,16.00
2022-09-07T19:42:24.276Z,16.00
2022-09-07T19:44:51.889Z,16.00
2022-09-07T19:47:19.015Z,16.00
2022-09-07T19:49:46.037Z,16.00
2022-09-07T19:52:13.166Z,16.00
2022-09-07T19:54:40.523Z,16.00
2022-09-07T19:57:07.498Z,15.90
2022-09-07T19:59:34.300Z,15.90
2022-09-07T20:02:01.181Z,15.90
2022-09-07T20:04:28.288Z,15.80
2022-09-07T20:06:56.314Z,15.80
2022-09-07T20:09:23.132Z,15.80
2022-09-07T20:11:50.314Z,15.70
2022-09-07T20:14:17.511Z,15.60
2022-09-07T20:16:44.605Z,15.60
2022-09-07T20:19:14.886Z,15.60
2022-09-07T20:21:42.488Z,15.60
2022-09-07T20:24:12.272Z,15.50
2022-09-07T20:26:39.133Z,15.50
2022-09-07T20:29:26.214Z,15.50
2022-09-07T20:31:53.726Z,15.40
2022-09-07T20:34:20.894Z,15.30
2022-09-07T20:36:49.774Z,15.40
2022-09-07T20:39:17.031Z,15.30
2022-09-07T20:41:44.491Z,15.40
2022-09-07T20:44:11.630Z,15.50
2022-09-07T20:46:38.807Z,15.50
2022-09-07T20:49:05.777Z,15.50
2022-09-07T20:51:32.764Z,15.60
2022-09-07T20:53:59.632Z,15.50
2022-09-07T20:56:28.298Z,15.60
2022-09-07T20:59:00.319Z,15.60
2022-09-07T21:01:30.029Z,15.50
2022-09-07T21:03:59.220Z,15.50
2022-09-07T21:06:27.590Z,15.40
2022-09-07T21:08:56.347Z,15.40
2022-09-07T21:11:26.645Z,15.30
2022-09-07T21:14:07.567Z,15.30
2022-09-07T21:16:37.919Z,15.20
2022-09-07T21:19:08.007Z,15.20
2022-09-07T21:21:38.994Z,15.20
2022-09-07T21:24:07.857Z,15.10
2022-09-07T21:26:35.002Z,15.10
2022-09-07T21:29:05.000Z,15.20
2022-09-07T21:31:33.684Z,15.10
2022-09-07T21:34:02.019Z,15.20
2022-09-07T21:36:29.735Z,15.10
2022-09-07T21:38:57.136Z,15.10
2022-09-07T21:41:25.423Z,15.00
2022-09-07T21:43:56.618Z,15.00
2022-09-07T21:46:24.634Z,14.90
2022-09-07T21:48:51.848Z,14.80
2022-09-07T21:51:18.878Z,14.80
2022-09-07T21:53:45.754Z,14.90
2022-09-07T21:56:15.590Z,14.80
2022-09-07T21:58:43.701Z,14.70
2022-09-07T22:01:17.022Z,14.70
2022-09-07T22:03:48.879Z,14.60
2022-09-07T22:06:15.793Z,14.50
2022-09-07T22:08:43.026Z,14.50
2022-09-07T22:11:12.827Z,14.40
2022-09-07T22:13:40.735Z,14.40
2022-09-07T22:16:07.883Z,14.30
2022-09-07T22:18:38.006Z,14.30
2022-09-07T22:21:10.880Z,14.30
2022-09-07T22:23:44.966Z,14.30
2022-09-07T22:26:12.903Z,14.30
2022-09-07T22:28:39.761Z,14.30
2022-09-07T22:31:24.447Z,14.30
2022-09-07T22:33:52.832Z,14.30
2022-09-07T22:36:27.937Z,14.20
2022-09-07T22:38:56.729Z,14.30
2022-09-07T22:41:29.544Z,14.30
2022-09-07T22:43:56.786Z,14.30
2022-09-07T22:46:26.145Z,14.30
2022-09-07T22:48:58.218Z,14.20
2022-09-07T22:51:26.857Z,14.10
2022-09-07T22:53:54.859Z,14.10
2022-09-07T22:56:24.306Z,14.10
2022-09-07T22:58:54.722Z,14.10
2022-09-07T23:01:22.100Z,14.00
2022-09-07T23:03:49.650Z,14.00
2022-09-07T23:06:40.658Z,13.90
2022-09-07T23:09:12.540Z,13.90
2022-09-07T23:11:39.910Z,13.90
2022-09-07T23:14:15.001Z,13.80
2022-09-07T23:16:42.688Z,13.80
2022-09-07T23:19:12.048Z,13.80
2022-09-07T23:21:39.899Z,13.80
2022-09-07T23:24:06.848Z,13.80
2022-09-07T23:26:34.080Z,13.70
2022-09-07T23:29:04.397Z,13.80
2022-09-07T23:31:33.871Z,13.70
2022-09-07T23:34:02.065Z,13.70
2022-09-07T23:36:29.123Z,13.70
2022-09-07T23:38:57.311Z,13.60
2022-09-07T23:41:25.093Z,13.50
2022-09-07T23:43:52.993Z,13.50
2022-09-07T23:46:20.107Z,13.50
2022-09-07T23:48:48.361Z,13.50
2022-09-07T23:51:19.931Z,13.50
2022-09-07T23:53:48.311Z,13.50
2022-09-07T23:56:15.162Z,13.50
2022-09-07T23:58:42.052Z,13.40
